Anacoco, Louisiana
Current Conditions -  °F | °C
As of 9:56 PM on Tuesday 21 Oct 2014 (Local Time) from KAQV Reporting Station
Haze Haze  
Wind Chill: 17°   Ceiling: Unl
Heat Index: 17°   Visibility: 3mi
Dew Point: 16°   Wind: 0mph
Humidity: 93%   Direction: NA
Pressure: 30.05"   Gusts: NA
Location:  31.25°N, 93.34°W
Report Text: KAQV 220256Z AUTO 00000KT 3SM BR CLR 17/16 A3005 RMK AO2 SLP174 T01670156 53015
Loading
Personal Weather Stations






























Interactive Weather Map
Tropical Storm Tracking
New forecast layout! Learn more

10-Day Weather Forecast

Advertisements
Track Severe Weather on mobile